ポンタ・デルガダ の空港の天気 - METARとTAF

ポンタ・デルガダ空港 ( LPPD / PDL ) - ポルトガル ポンタ・デルガダ (サンミゲル島)
飛行場実況気象(Metar)
観測時間10/25 18:30 AZOT (10/25 19:30 UTC)
風向・風速北北西 2m/s
視程10km以上
天気現象
少しの雲 雲底高度 760m
気温17℃
湿度72%
気圧1028hPa
METARLPPD 251930Z 34003KT 310V010 9999 FEW025 17/12 Q1028
過去の天気等 Google飛行場航空写真 Wunderground天気予報

過去48時間のMETAR

飛行場予報(TAF)
発表時間: 10/25 16:00 AZOT (10/25 17:00 UTC)
予報対象時間: 25日17時 AZOT ~ 26日17時 AZOT
風向・風速北 5m/s
視程10km以上
全天の4割程度の雲 雲底高度 610m
25日19時 AZOT ~ 25日22時 AZOT に徐々に
風向・風速不定 3m/s
26日3時 AZOT ~ 26日6時 AZOT に徐々に
風向・風速南西 4m/s
全天の4割程度の雲 雲底高度 460m
全天の8割程度の雲 雲底高度 910m
26日8時 AZOT ~ 26日13時 AZOT に一時的に
全天の4割程度の雲 雲底高度 370m
全天の8割程度の雲 雲底高度 760m
26日13時 AZOT ~ 26日15時 AZOT に徐々に
風向・風速西 5m/s
全天の4割程度の雲 雲底高度 550m
TAF LPPD 251700Z 2518/2618 36010KT 9999 SCT020
BECMG 2520/2523 VRB05KT
BECMG 2604/2607 23008KT SCT015 BKN030
TEMPO 2609/2614 SCT012 BKN025
BECMG 2614/2616 26010KT SCT018